sensor_id;sensor_type;location;lat;lon;timestamp;P1;durP1;ratioP1;P2;durP2;ratioP2
1593;SDS011;790;47.000;16.084;2023-04-15T00:00:29;1.70;;;1.60;;
1593;SDS011;790;47.000;16.084;2023-04-15T00:02:59;2.00;;;1.90;;
1593;SDS011;790;47.000;16.084;2023-04-15T00:05:28;2.20;;;1.63;;
1593;SDS011;790;47.000;16.084;2023-04-15T00:07:57;2.33;;;1.87;;
1593;SDS011;790;47.000;16.084;2023-04-15T00:10:25;1.90;;;1.80;;
1593;SDS011;790;47.000;16.084;2023-04-15T00:12:58;2.10;;;1.90;;
1593;SDS011;790;47.000;16.084;2023-04-15T00:15:26;3.33;;;1.60;;
1593;SDS011;790;47.000;16.084;2023-04-15T00:17:53;1.67;;;1.50;;
1593;SDS011;790;47.000;16.084;2023-04-15T00:20:21;1.83;;;1.73;;
1593;SDS011;790;47.000;16.084;2023-04-15T00:22:48;1.70;;;1.60;;
1593;SDS011;790;47.000;16.084;2023-04-15T00:25:15;1.80;;;1.70;;
1593;SDS011;790;47.000;16.084;2023-04-15T00:27:43;1.93;;;1.50;;
1593;SDS011;790;47.000;16.084;2023-04-15T00:30:12;1.90;;;1.80;;
1593;SDS011;790;47.000;16.084;2023-04-15T00:32:39;1.50;;;1.50;;
1593;SDS011;790;47.000;16.084;2023-04-15T00:35:07;1.60;;;1.50;;
1593;SDS011;790;47.000;16.084;2023-04-15T00:37:35;1.60;;;1.50;;
1593;SDS011;790;47.000;16.084;2023-04-15T00:40:03;1.60;;;1.50;;
1593;SDS011;790;47.000;16.084;2023-04-15T00:42:33;1.40;;;1.40;;
1593;SDS011;790;47.000;16.084;2023-04-15T00:45:00;1.47;;;1.40;;
1593;SDS011;790;47.000;16.084;2023-04-15T00:47:29;1.80;;;1.70;;
1593;SDS011;790;47.000;16.084;2023-04-15T00:49:59;1.50;;;1.47;;
1593;SDS011;790;47.000;16.084;2023-04-15T00:52:26;1.63;;;1.53;;
1593;SDS011;790;47.000;16.084;2023-04-15T00:54:53;1.93;;;1.83;;
1593;SDS011;790;47.000;16.084;2023-04-15T00:57:21;1.60;;;1.50;;
1593;SDS011;790;47.000;16.084;2023-04-15T00:59:48;2.17;;;1.97;;
1593;SDS011;790;47.000;16.084;2023-04-15T01:02:16;1.60;;;1.50;;
1593;SDS011;790;47.000;16.084;2023-04-15T01:04:45;1.30;;;1.30;;
1593;SDS011;790;47.000;16.084;2023-04-15T01:07:12;2.07;;;1.80;;
1593;SDS011;790;47.000;16.084;2023-04-15T01:09:40;1.97;;;1.40;;
1593;SDS011;790;47.000;16.084;2023-04-15T01:12:07;1.77;;;1.30;;
1593;SDS011;790;47.000;16.084;2023-04-15T01:14:37;1.40;;;1.40;;
1593;SDS011;790;47.000;16.084;2023-04-15T01:17:04;1.87;;;1.43;;
1593;SDS011;790;47.000;16.084;2023-04-15T01:19:32;1.63;;;1.53;;
1593;SDS011;790;47.000;16.084;2023-04-15T01:22:00;1.80;;;1.23;;
1593;SDS011;790;47.000;16.084;2023-04-15T01:24:28;1.70;;;1.60;;
1593;SDS011;790;47.000;16.084;2023-04-15T01:26:58;2.80;;;1.50;;
1593;SDS011;790;47.000;16.084;2023-04-15T01:29:26;1.40;;;1.30;;
1593;SDS011;790;47.000;16.084;2023-04-15T01:31:54;1.63;;;1.53;;
1593;SDS011;790;47.000;16.084;2023-04-15T01:34:21;1.10;;;1.10;;
1593;SDS011;790;47.000;16.084;2023-04-15T01:36:49;1.53;;;1.43;;
1593;SDS011;790;47.000;16.084;2023-04-15T01:39:16;1.50;;;1.40;;
1593;SDS011;790;47.000;16.084;2023-04-15T01:41:43;1.33;;;1.23;;
1593;SDS011;790;47.000;16.084;2023-04-15T01:44:12;1.20;;;1.20;;
1593;SDS011;790;47.000;16.084;2023-04-15T01:46:39;1.40;;;1.30;;
1593;SDS011;790;47.000;16.084;2023-04-15T01:49:06;1.63;;;1.50;;
1593;SDS011;790;47.000;16.084;2023-04-15T01:51:33;1.40;;;1.30;;
1593;SDS011;790;47.000;16.084;2023-04-15T01:54:04;1.30;;;1.20;;
1593;SDS011;790;47.000;16.084;2023-04-15T01:56:34;1.33;;;1.20;;
1593;SDS011;790;47.000;16.084;2023-04-15T01:59:02;1.13;;;1.13;;
1593;SDS011;790;47.000;16.084;2023-04-15T02:01:30;1.60;;;1.50;;
1593;SDS011;790;47.000;16.084;2023-04-15T02:03:58;1.20;;;1.20;;
1593;SDS011;790;47.000;16.084;2023-04-15T02:06:25;1.13;;;1.13;;
1593;SDS011;790;47.000;16.084;2023-04-15T02:08:53;1.20;;;1.20;;
1593;SDS011;790;47.000;16.084;2023-04-15T02:11:20;1.00;;;1.00;;
1593;SDS011;790;47.000;16.084;2023-04-15T02:13:48;1.23;;;1.23;;
1593;SDS011;790;47.000;16.084;2023-04-15T02:16:15;1.40;;;1.30;;
1593;SDS011;790;47.000;16.084;2023-04-15T02:18:44;2.00;;;1.80;;
1593;SDS011;790;47.000;16.084;2023-04-15T02:21:12;1.33;;;1.23;;
1593;SDS011;790;47.000;16.084;2023-04-15T02:23:39;1.57;;;1.30;;
1593;SDS011;790;47.000;16.084;2023-04-15T02:26:08;3.73;;;1.33;;
1593;SDS011;790;47.000;16.084;2023-04-15T02:28:36;1.20;;;1.20;;
1593;SDS011;790;47.000;16.084;2023-04-15T02:31:04;1.20;;;1.20;;
1593;SDS011;790;47.000;16.084;2023-04-15T02:33:32;1.53;;;1.43;;
1593;SDS011;790;47.000;16.084;2023-04-15T02:36:02;1.70;;;1.60;;
1593;SDS011;790;47.000;16.084;2023-04-15T02:38:29;1.30;;;1.30;;
1593;SDS011;790;47.000;16.084;2023-04-15T02:40:56;1.40;;;1.30;;
1593;SDS011;790;47.000;16.084;2023-04-15T02:43:23;1.50;;;1.37;;
1593;SDS011;790;47.000;16.084;2023-04-15T02:45:50;1.43;;;1.43;;
1593;SDS011;790;47.000;16.084;2023-04-15T02:48:17;1.20;;;1.20;;
1593;SDS011;790;47.000;16.084;2023-04-15T02:50:45;1.60;;;1.50;;
1593;SDS011;790;47.000;16.084;2023-04-15T02:53:14;1.83;;;1.70;;
1593;SDS011;790;47.000;16.084;2023-04-15T02:55:41;2.03;;;1.50;;
1593;SDS011;790;47.000;16.084;2023-04-15T02:58:09;1.50;;;1.50;;
1593;SDS011;790;47.000;16.084;2023-04-15T03:00:36;1.70;;;1.60;;
1593;SDS011;790;47.000;16.084;2023-04-15T03:03:04;1.80;;;1.70;;
1593;SDS011;790;47.000;16.084;2023-04-15T03:05:31;1.40;;;1.40;;
1593;SDS011;790;47.000;16.084;2023-04-15T03:07:59;1.40;;;1.40;;
1593;SDS011;790;47.000;16.084;2023-04-15T03:10:28;1.80;;;1.50;;
1593;SDS011;790;47.000;16.084;2023-04-15T03:12:56;1.60;;;1.50;;
1593;SDS011;790;47.000;16.084;2023-04-15T03:15:23;2.13;;;1.70;;
1593;SDS011;790;47.000;16.084;2023-04-15T03:17:50;1.80;;;1.70;;
1593;SDS011;790;47.000;16.084;2023-04-15T03:20:17;1.53;;;1.43;;
1593;SDS011;790;47.000;16.084;2023-04-15T03:22:45;1.87;;;1.77;;
1593;SDS011;790;47.000;16.084;2023-04-15T03:25:12;3.93;;;1.90;;
1593;SDS011;790;47.000;16.084;2023-04-15T03:27:40;2.50;;;1.90;;
1593;SDS011;790;47.000;16.084;2023-04-15T03:30:08;1.40;;;1.40;;
1593;SDS011;790;47.000;16.084;2023-04-15T03:32:36;1.60;;;1.60;;
1593;SDS011;790;47.000;16.084;2023-04-15T03:35:04;1.40;;;1.40;;
1593;SDS011;790;47.000;16.084;2023-04-15T03:37:32;2.30;;;1.30;;
1593;SDS011;790;47.000;16.084;2023-04-15T03:39:59;1.70;;;1.50;;
1593;SDS011;790;47.000;16.084;2023-04-15T03:42:26;1.30;;;1.30;;
1593;SDS011;790;47.000;16.084;2023-04-15T03:44:55;1.30;;;1.30;;
1593;SDS011;790;47.000;16.084;2023-04-15T03:47:22;1.20;;;1.20;;
1593;SDS011;790;47.000;16.084;2023-04-15T03:49:49;1.00;;;0.97;;
1593;SDS011;790;47.000;16.084;2023-04-15T03:52:16;1.57;;;1.47;;
1593;SDS011;790;47.000;16.084;2023-04-15T03:54:43;1.23;;;1.17;;
1593;SDS011;790;47.000;16.084;2023-04-15T03:57:11;1.60;;;1.50;;
1593;SDS011;790;47.000;16.084;2023-04-15T03:59:38;1.47;;;1.40;;
1593;SDS011;790;47.000;16.084;2023-04-15T04:02:06;1.53;;;1.30;;
1593;SDS011;790;47.000;16.084;2023-04-15T04:04:33;1.57;;;1.40;;
1593;SDS011;790;47.000;16.084;2023-04-15T04:07:00;1.30;;;1.30;;
1593;SDS011;790;47.000;16.084;2023-04-15T04:09:28;1.37;;;1.20;;
1593;SDS011;790;47.000;16.084;2023-04-15T04:11:55;1.50;;;1.50;;
1593;SDS011;790;47.000;16.084;2023-04-15T04:14:22;1.30;;;1.30;;
1593;SDS011;790;47.000;16.084;2023-04-15T04:16:53;1.40;;;1.30;;
1593;SDS011;790;47.000;16.084;2023-04-15T04:19:26;2.80;;;1.13;;
1593;SDS011;790;47.000;16.084;2023-04-15T04:21:54;1.57;;;1.47;;
1593;SDS011;790;47.000;16.084;2023-04-15T04:24:21;1.40;;;1.30;;
1593;SDS011;790;47.000;16.084;2023-04-15T04:26:48;1.60;;;1.50;;
1593;SDS011;790;47.000;16.084;2023-04-15T04:29:15;1.67;;;1.40;;
1593;SDS011;790;47.000;16.084;2023-04-15T04:31:42;1.13;;;1.13;;
1593;SDS011;790;47.000;16.084;2023-04-15T04:34:11;1.30;;;1.30;;
1593;SDS011;790;47.000;16.084;2023-04-15T04:36:39;1.47;;;1.37;;
1593;SDS011;790;47.000;16.084;2023-04-15T04:39:06;1.40;;;1.30;;
1593;SDS011;790;47.000;16.084;2023-04-15T04:41:34;1.40;;;1.40;;
1593;SDS011;790;47.000;16.084;2023-04-15T04:44:01;1.67;;;1.47;;
1593;SDS011;790;47.000;16.084;2023-04-15T04:46:28;1.90;;;1.70;;
1593;SDS011;790;47.000;16.084;2023-04-15T04:48:55;1.33;;;1.30;;
1593;SDS011;790;47.000;16.084;2023-04-15T04:51:23;2.60;;;1.90;;
1593;SDS011;790;47.000;16.084;2023-04-15T04:53:54;1.87;;;1.77;;
1593;SDS011;790;47.000;16.084;2023-04-15T04:56:21;2.13;;;1.37;;
1593;SDS011;790;47.000;16.084;2023-04-15T04:58:48;1.30;;;1.30;;
1593;SDS011;790;47.000;16.084;2023-04-15T05:01:15;1.80;;;1.70;;
1593;SDS011;790;47.000;16.084;2023-04-15T05:03:43;1.80;;;1.70;;
1593;SDS011;790;47.000;16.084;2023-04-15T05:06:11;2.00;;;1.90;;
1593;SDS011;790;47.000;16.084;2023-04-15T05:08:38;1.63;;;1.53;;
1593;SDS011;790;47.000;16.084;2023-04-15T05:11:07;1.80;;;1.70;;
1593;SDS011;790;47.000;16.084;2023-04-15T05:13:34;2.93;;;2.20;;
1593;SDS011;790;47.000;16.084;2023-04-15T05:16:03;2.10;;;2.00;;
1593;SDS011;790;47.000;16.084;2023-04-15T05:18:31;1.63;;;1.63;;
1593;SDS011;790;47.000;16.084;2023-04-15T05:20:59;1.30;;;1.30;;
1593;SDS011;790;47.000;16.084;2023-04-15T05:23:27;1.73;;;1.63;;
1593;SDS011;790;47.000;16.084;2023-04-15T05:25:55;1.40;;;1.40;;
1593;SDS011;790;47.000;16.084;2023-04-15T05:28:27;1.97;;;1.87;;
1593;SDS011;790;47.000;16.084;2023-04-15T05:30:56;1.37;;;1.37;;
1593;SDS011;790;47.000;16.084;2023-04-15T05:33:24;1.27;;;1.27;;
1593;SDS011;790;47.000;16.084;2023-04-15T05:35:52;1.60;;;1.50;;
1593;SDS011;790;47.000;16.084;2023-04-15T05:38:19;1.53;;;1.50;;
1593;SDS011;790;47.000;16.084;2023-04-15T05:40:47;1.73;;;1.63;;
1593;SDS011;790;47.000;16.084;2023-04-15T05:43:15;1.80;;;1.70;;
1593;SDS011;790;47.000;16.084;2023-04-15T05:45:43;1.90;;;1.80;;
1593;SDS011;790;47.000;16.084;2023-04-15T05:48:12;1.97;;;1.73;;
1593;SDS011;790;47.000;16.084;2023-04-15T05:50:39;2.10;;;2.00;;
1593;SDS011;790;47.000;16.084;2023-04-15T05:53:07;2.00;;;1.90;;
1593;SDS011;790;47.000;16.084;2023-04-15T05:55:35;1.70;;;1.60;;
1593;SDS011;790;47.000;16.084;2023-04-15T05:58:04;2.00;;;1.90;;
1593;SDS011;790;47.000;16.084;2023-04-15T06:00:31;2.43;;;1.93;;
1593;SDS011;790;47.000;16.084;2023-04-15T06:03:01;2.80;;;2.60;;
1593;SDS011;790;47.000;16.084;2023-04-15T06:05:28;2.77;;;2.67;;
1593;SDS011;790;47.000;16.084;2023-04-15T06:07:56;3.20;;;3.00;;
1593;SDS011;790;47.000;16.084;2023-04-15T06:10:23;6.07;;;5.63;;
1593;SDS011;790;47.000;16.084;2023-04-15T06:12:51;6.40;;;6.00;;
1593;SDS011;790;47.000;16.084;2023-04-15T06:15:19;6.60;;;6.10;;
1593;SDS011;790;47.000;16.084;2023-04-15T06:17:46;6.07;;;5.67;;
1593;SDS011;790;47.000;16.084;2023-04-15T06:20:15;5.30;;;5.00;;
1593;SDS011;790;47.000;16.084;2023-04-15T06:22:42;5.20;;;4.80;;
1593;SDS011;790;47.000;16.084;2023-04-15T06:25:09;5.03;;;4.70;;
1593;SDS011;790;47.000;16.084;2023-04-15T06:27:37;4.80;;;4.50;;
1593;SDS011;790;47.000;16.084;2023-04-15T06:30:05;4.23;;;4.03;;
1593;SDS011;790;47.000;16.084;2023-04-15T06:32:33;3.70;;;3.40;;
1593;SDS011;790;47.000;16.084;2023-04-15T06:35:02;9.77;;;8.17;;
1593;SDS011;790;47.000;16.084;2023-04-15T06:37:32;6.03;;;5.53;;
1593;SDS011;790;47.000;16.084;2023-04-15T06:40:01;4.07;;;3.13;;
1593;SDS011;790;47.000;16.084;2023-04-15T06:42:29;2.70;;;2.60;;
1593;SDS011;790;47.000;16.084;2023-04-15T06:44:58;3.73;;;3.50;;
1593;SDS011;790;47.000;16.084;2023-04-15T06:47:27;17.73;;;11.53;;
1593;SDS011;790;47.000;16.084;2023-04-15T06:49:54;3.40;;;3.20;;
1593;SDS011;790;47.000;16.084;2023-04-15T06:52:21;3.53;;;3.27;;
1593;SDS011;790;47.000;16.084;2023-04-15T06:54:50;3.70;;;3.50;;
1593;SDS011;790;47.000;16.084;2023-04-15T06:57:18;3.83;;;3.63;;
1593;SDS011;790;47.000;16.084;2023-04-15T06:59:45;3.70;;;3.50;;
1593;SDS011;790;47.000;16.084;2023-04-15T07:02:13;4.50;;;4.17;;
1593;SDS011;790;47.000;16.084;2023-04-15T07:04:40;4.67;;;4.37;;
1593;SDS011;790;47.000;16.084;2023-04-15T07:07:08;4.93;;;3.93;;
1593;SDS011;790;47.000;16.084;2023-04-15T07:09:37;3.37;;;3.17;;
1593;SDS011;790;47.000;16.084;2023-04-15T07:12:05;3.60;;;3.30;;
1593;SDS011;790;47.000;16.084;2023-04-15T07:14:36;2.80;;;2.67;;
1593;SDS011;790;47.000;16.084;2023-04-15T07:17:03;3.10;;;2.83;;
1593;SDS011;790;47.000;16.084;2023-04-15T07:19:30;3.20;;;3.00;;
1593;SDS011;790;47.000;16.084;2023-04-15T07:21:57;3.50;;;3.30;;
1593;SDS011;790;47.000;16.084;2023-04-15T07:24:25;3.20;;;3.00;;
1593;SDS011;790;47.000;16.084;2023-04-15T07:26:52;3.10;;;2.80;;
1593;SDS011;790;47.000;16.084;2023-04-15T07:29:21;2.93;;;2.73;;
1593;SDS011;790;47.000;16.084;2023-04-15T07:31:49;2.80;;;2.70;;
1593;SDS011;790;47.000;16.084;2023-04-15T07:34:16;3.20;;;3.00;;
1593;SDS011;790;47.000;16.084;2023-04-15T07:36:44;3.53;;;3.10;;
1593;SDS011;790;47.000;16.084;2023-04-15T07:39:14;3.03;;;2.93;;
1593;SDS011;790;47.000;16.084;2023-04-15T07:41:41;3.30;;;3.10;;
1593;SDS011;790;47.000;16.084;2023-04-15T07:44:09;3.10;;;2.90;;
1593;SDS011;790;47.000;16.084;2023-04-15T07:46:38;3.50;;;3.30;;
1593;SDS011;790;47.000;16.084;2023-04-15T07:49:05;3.47;;;3.27;;
1593;SDS011;790;47.000;16.084;2023-04-15T07:51:32;3.23;;;3.03;;
1593;SDS011;790;47.000;16.084;2023-04-15T07:54:00;3.30;;;3.10;;
1593;SDS011;790;47.000;16.084;2023-04-15T07:56:28;3.67;;;3.33;;
1593;SDS011;790;47.000;16.084;2023-04-15T07:58:55;3.00;;;2.90;;
1593;SDS011;790;47.000;16.084;2023-04-15T08:01:23;3.13;;;3.03;;
1593;SDS011;790;47.000;16.084;2023-04-15T08:03:52;3.57;;;3.30;;
1593;SDS011;790;47.000;16.084;2023-04-15T08:06:19;3.97;;;3.70;;
1593;SDS011;790;47.000;16.084;2023-04-15T08:08:46;3.43;;;3.23;;
1593;SDS011;790;47.000;16.084;2023-04-15T08:11:14;2.90;;;2.80;;
1593;SDS011;790;47.000;16.084;2023-04-15T08:13:41;3.20;;;3.00;;
1593;SDS011;790;47.000;16.084;2023-04-15T08:16:13;3.40;;;3.20;;
1593;SDS011;790;47.000;16.084;2023-04-15T08:18:45;3.20;;;3.00;;
1593;SDS011;790;47.000;16.084;2023-04-15T08:21:16;5.93;;;5.50;;
1593;SDS011;790;47.000;16.084;2023-04-15T08:23:46;11.03;;;9.20;;
1593;SDS011;790;47.000;16.084;2023-04-15T08:26:14;9.10;;;5.70;;
1593;SDS011;790;47.000;16.084;2023-04-15T08:28:42;8.67;;;7.77;;
1593;SDS011;790;47.000;16.084;2023-04-15T08:31:11;8.80;;;8.00;;
1593;SDS011;790;47.000;16.084;2023-04-15T08:33:39;9.10;;;8.23;;
1593;SDS011;790;47.000;16.084;2023-04-15T08:36:06;6.53;;;5.93;;
1593;SDS011;790;47.000;16.084;2023-04-15T08:38:39;4.20;;;3.90;;
1593;SDS011;790;47.000;16.084;2023-04-15T08:41:08;3.67;;;3.47;;
1593;SDS011;790;47.000;16.084;2023-04-15T08:43:45;7.00;;;6.40;;
1593;SDS011;790;47.000;16.084;2023-04-15T08:46:18;6.50;;;5.90;;
1593;SDS011;790;47.000;16.084;2023-04-15T08:48:46;6.93;;;6.43;;
1593;SDS011;790;47.000;16.084;2023-04-15T08:51:14;5.90;;;5.40;;
1593;SDS011;790;47.000;16.084;2023-04-15T08:53:44;4.90;;;4.60;;
1593;SDS011;790;47.000;16.084;2023-04-15T08:56:13;5.17;;;4.87;;
1593;SDS011;790;47.000;16.084;2023-04-15T08:58:41;4.53;;;4.23;;
1593;SDS011;790;47.000;16.084;2023-04-15T09:01:12;7.73;;;7.03;;
1593;SDS011;790;47.000;16.084;2023-04-15T09:03:39;7.70;;;7.10;;
1593;SDS011;790;47.000;16.084;2023-04-15T09:06:07;8.03;;;7.37;;
1593;SDS011;790;47.000;16.084;2023-04-15T09:08:35;5.90;;;5.40;;
1593;SDS011;790;47.000;16.084;2023-04-15T09:11:05;5.10;;;4.67;;
1593;SDS011;790;47.000;16.084;2023-04-15T09:13:33;11.10;;;8.83;;
1593;SDS011;790;47.000;16.084;2023-04-15T09:16:00;5.13;;;4.73;;
1593;SDS011;790;47.000;16.084;2023-04-15T09:18:28;8.43;;;7.17;;
1593;SDS011;790;47.000;16.084;2023-04-15T09:21:03;7.47;;;6.77;;
1593;SDS011;790;47.000;16.084;2023-04-15T09:23:33;7.07;;;6.47;;
1593;SDS011;790;47.000;16.084;2023-04-15T09:26:01;7.23;;;6.63;;
1593;SDS011;790;47.000;16.084;2023-04-15T09:28:30;8.23;;;7.53;;
1593;SDS011;790;47.000;16.084;2023-04-15T09:30:57;5.33;;;4.93;;
1593;SDS011;790;47.000;16.084;2023-04-15T09:33:26;9.30;;;8.50;;
1593;SDS011;790;47.000;16.084;2023-04-15T09:35:58;8.80;;;8.10;;
1593;SDS011;790;47.000;16.084;2023-04-15T09:38:26;13.67;;;12.13;;
1593;SDS011;790;47.000;16.084;2023-04-15T09:40:53;7.87;;;7.27;;
1593;SDS011;790;47.000;16.084;2023-04-15T09:43:22;6.33;;;5.83;;
1593;SDS011;790;47.000;16.084;2023-04-15T09:46:04;7.10;;;5.17;;
1593;SDS011;790;47.000;16.084;2023-04-15T09:48:32;17.00;;;15.20;;
1593;SDS011;790;47.000;16.084;2023-04-15T09:51:00;10.10;;;9.13;;
1593;SDS011;790;47.000;16.084;2023-04-15T09:53:28;4.90;;;4.57;;
1593;SDS011;790;47.000;16.084;2023-04-15T09:55:58;5.73;;;4.33;;
1593;SDS011;790;47.000;16.084;2023-04-15T09:58:28;4.47;;;4.07;;
1593;SDS011;790;47.000;16.084;2023-04-15T10:00:57;3.07;;;2.87;;
1593;SDS011;790;47.000;16.084;2023-04-15T10:03:32;3.70;;;3.43;;
1593;SDS011;790;47.000;16.084;2023-04-15T10:06:01;3.77;;;3.57;;
1593;SDS011;790;47.000;16.084;2023-04-15T10:08:30;5.70;;;5.30;;
1593;SDS011;790;47.000;16.084;2023-04-15T10:11:02;4.40;;;4.10;;
1593;SDS011;790;47.000;16.084;2023-04-15T10:13:33;3.97;;;3.77;;
1593;SDS011;790;47.000;16.084;2023-04-15T10:18:39;3.30;;;3.10;;
1593;SDS011;790;47.000;16.084;2023-04-15T10:21:10;3.13;;;2.93;;
1593;SDS011;790;47.000;16.084;2023-04-15T10:23:39;3.20;;;2.90;;
1593;SDS011;790;47.000;16.084;2023-04-15T10:26:07;2.47;;;2.37;;
1593;SDS011;790;47.000;16.084;2023-04-15T10:28:37;2.83;;;2.63;;
1593;SDS011;790;47.000;16.084;2023-04-15T10:31:04;3.00;;;2.80;;
1593;SDS011;790;47.000;16.084;2023-04-15T10:33:32;2.77;;;2.57;;
1593;SDS011;790;47.000;16.084;2023-04-15T10:36:03;2.30;;;2.20;;
1593;SDS011;790;47.000;16.084;2023-04-15T10:38:33;2.73;;;2.50;;
1593;SDS011;790;47.000;16.084;2023-04-15T10:41:11;2.47;;;2.37;;
1593;SDS011;790;47.000;16.084;2023-04-15T10:43:46;2.90;;;2.20;;
1593;SDS011;790;47.000;16.084;2023-04-15T10:46:19;2.47;;;2.07;;
1593;SDS011;790;47.000;16.084;2023-04-15T10:48:52;2.80;;;2.60;;
1593;SDS011;790;47.000;16.084;2023-04-15T10:51:27;2.83;;;2.60;;
1593;SDS011;790;47.000;16.084;2023-04-15T10:53:57;2.17;;;2.07;;
1593;SDS011;790;47.000;16.084;2023-04-15T10:56:27;2.43;;;2.30;;
1593;SDS011;790;47.000;16.084;2023-04-15T10:58:55;2.87;;;2.67;;
1593;SDS011;790;47.000;16.084;2023-04-15T11:07:35;2.37;;;2.17;;
1593;SDS011;790;47.000;16.084;2023-04-15T11:10:48;2.60;;;2.30;;
1593;SDS011;790;47.000;16.084;2023-04-15T11:13:16;2.30;;;2.10;;
1593;SDS011;790;47.000;16.084;2023-04-15T11:15:47;2.03;;;1.93;;
1593;SDS011;790;47.000;16.084;2023-04-15T11:18:17;1.90;;;1.73;;
1593;SDS011;790;47.000;16.084;2023-04-15T11:20:48;2.93;;;2.27;;
1593;SDS011;790;47.000;16.084;2023-04-15T11:23:17;2.13;;;1.83;;
1593;SDS011;790;47.000;16.084;2023-04-15T11:25:46;3.63;;;3.10;;
1593;SDS011;790;47.000;16.084;2023-04-15T11:28:14;4.13;;;3.67;;
1593;SDS011;790;47.000;16.084;2023-04-15T11:30:41;2.60;;;1.93;;
1593;SDS011;790;47.000;16.084;2023-04-15T11:33:09;1.47;;;1.37;;
1593;SDS011;790;47.000;16.084;2023-04-15T11:35:39;5.57;;;5.07;;
1593;SDS011;790;47.000;16.084;2023-04-15T11:38:10;15.07;;;12.00;;
1593;SDS011;790;47.000;16.084;2023-04-15T11:40:39;7.67;;;4.97;;
1593;SDS011;790;47.000;16.084;2023-04-15T11:43:08;4.43;;;1.70;;
1593;SDS011;790;47.000;16.084;2023-04-15T11:45:37;4.03;;;3.70;;
1593;SDS011;790;47.000;16.084;2023-04-15T11:48:14;6.13;;;4.80;;
1593;SDS011;790;47.000;16.084;2023-04-15T11:50:42;5.33;;;3.40;;
1593;SDS011;790;47.000;16.084;2023-04-15T11:53:11;20.47;;;16.50;;
1593;SDS011;790;47.000;16.084;2023-04-15T11:55:44;9.00;;;7.83;;
1593;SDS011;790;47.000;16.084;2023-04-15T11:58:13;4.40;;;4.00;;
1593;SDS011;790;47.000;16.084;2023-04-15T12:00:44;3.40;;;3.20;;
1593;SDS011;790;47.000;16.084;2023-04-15T12:03:17;2.43;;;2.23;;
1593;SDS011;790;47.000;16.084;2023-04-15T12:08:49;1.80;;;1.70;;
1593;SDS011;790;47.000;16.084;2023-04-15T12:11:28;0.80;;;0.80;;
1593;SDS011;790;47.000;16.084;2023-04-15T12:14:01;1.23;;;1.23;;
1593;SDS011;790;47.000;16.084;2023-04-15T12:16:30;0.77;;;0.77;;
1593;SDS011;790;47.000;16.084;2023-04-15T12:19:03;1.10;;;1.10;;
1593;SDS011;790;47.000;16.084;2023-04-15T12:21:35;0.70;;;0.70;;
1593;SDS011;790;47.000;16.084;2023-04-15T12:24:05;1.37;;;1.27;;
1593;SDS011;790;47.000;16.084;2023-04-15T12:26:35;1.97;;;1.10;;
1593;SDS011;790;47.000;16.084;2023-04-15T12:29:04;0.93;;;0.93;;
1593;SDS011;790;47.000;16.084;2023-04-15T12:31:33;1.13;;;1.13;;
1593;SDS011;790;47.000;16.084;2023-04-15T12:34:02;0.77;;;0.77;;
1593;SDS011;790;47.000;16.084;2023-04-15T12:36:33;2.77;;;0.90;;
1593;SDS011;790;47.000;16.084;2023-04-15T12:39:01;1.33;;;1.23;;
1593;SDS011;790;47.000;16.084;2023-04-15T12:41:31;0.83;;;0.80;;
1593;SDS011;790;47.000;16.084;2023-04-15T12:43:59;0.80;;;0.80;;
1593;SDS011;790;47.000;16.084;2023-04-15T12:46:27;1.50;;;0.80;;
1593;SDS011;790;47.000;16.084;2023-04-15T12:48:55;0.67;;;0.67;;
1593;SDS011;790;47.000;16.084;2023-04-15T12:51:23;0.50;;;0.50;;
1593;SDS011;790;47.000;16.084;2023-04-15T12:53:51;0.83;;;0.53;;
1593;SDS011;790;47.000;16.084;2023-04-15T12:56:18;0.80;;;0.80;;
1593;SDS011;790;47.000;16.084;2023-04-15T12:58:47;0.80;;;0.80;;
1593;SDS011;790;47.000;16.084;2023-04-15T13:01:14;0.90;;;0.90;;
1593;SDS011;790;47.000;16.084;2023-04-15T13:03:42;1.80;;;0.77;;
1593;SDS011;790;47.000;16.084;2023-04-15T13:06:09;0.70;;;0.70;;
1593;SDS011;790;47.000;16.084;2023-04-15T13:08:37;0.90;;;0.90;;
1593;SDS011;790;47.000;16.084;2023-04-15T13:11:04;0.50;;;0.50;;
1593;SDS011;790;47.000;16.084;2023-04-15T13:13:33;0.60;;;0.60;;
1593;SDS011;790;47.000;16.084;2023-04-15T13:16:01;0.50;;;0.50;;
1593;SDS011;790;47.000;16.084;2023-04-15T13:18:29;1.00;;;1.00;;
1593;SDS011;790;47.000;16.084;2023-04-15T13:20:56;0.70;;;0.70;;
1593;SDS011;790;47.000;16.084;2023-04-15T13:23:23;0.70;;;0.70;;
1593;SDS011;790;47.000;16.084;2023-04-15T13:25:50;0.70;;;0.70;;
1593;SDS011;790;47.000;16.084;2023-04-15T13:28:18;0.67;;;0.57;;
1593;SDS011;790;47.000;16.084;2023-04-15T13:30:45;0.47;;;0.47;;
1593;SDS011;790;47.000;16.084;2023-04-15T13:33:15;0.40;;;0.40;;
1593;SDS011;790;47.000;16.084;2023-04-15T13:35:43;0.60;;;0.60;;
1593;SDS011;790;47.000;16.084;2023-04-15T13:38:10;0.67;;;0.67;;
1593;SDS011;790;47.000;16.084;2023-04-15T13:40:37;1.20;;;0.93;;
1593;SDS011;790;47.000;16.084;2023-04-15T13:43:05;0.90;;;0.90;;
1593;SDS011;790;47.000;16.084;2023-04-15T13:45:32;0.90;;;0.80;;
1593;SDS011;790;47.000;16.084;2023-04-15T13:47:59;0.70;;;0.70;;
1593;SDS011;790;47.000;16.084;2023-04-15T13:50:28;1.00;;;1.00;;
1593;SDS011;790;47.000;16.084;2023-04-15T13:52:55;0.50;;;0.50;;
1593;SDS011;790;47.000;16.084;2023-04-15T13:55:22;0.73;;;0.73;;
1593;SDS011;790;47.000;16.084;2023-04-15T13:57:49;0.83;;;0.80;;
1593;SDS011;790;47.000;16.084;2023-04-15T14:00:18;1.00;;;1.00;;
1593;SDS011;790;47.000;16.084;2023-04-15T14:02:46;0.50;;;0.50;;
1593;SDS011;790;47.000;16.084;2023-04-15T14:05:14;2.00;;;0.60;;
1593;SDS011;790;47.000;16.084;2023-04-15T14:07:42;0.50;;;0.50;;
1593;SDS011;790;47.000;16.084;2023-04-15T14:10:09;0.60;;;0.60;;
1593;SDS011;790;47.000;16.084;2023-04-15T14:12:37;2.67;;;1.00;;
1593;SDS011;790;47.000;16.084;2023-04-15T14:15:04;1.07;;;0.80;;
1593;SDS011;790;47.000;16.084;2023-04-15T14:17:32;0.70;;;0.70;;
1593;SDS011;790;47.000;16.084;2023-04-15T14:19:59;0.97;;;0.50;;
1593;SDS011;790;47.000;16.084;2023-04-15T14:22:26;4.63;;;3.50;;
1593;SDS011;790;47.000;16.084;2023-04-15T14:24:55;1.10;;;1.03;;
1593;SDS011;790;47.000;16.084;2023-04-15T14:27:22;1.63;;;1.00;;
1593;SDS011;790;47.000;16.084;2023-04-15T14:29:49;0.90;;;0.90;;
1593;SDS011;790;47.000;16.084;2023-04-15T14:32:17;0.70;;;0.70;;
1593;SDS011;790;47.000;16.084;2023-04-15T14:34:45;2.40;;;1.00;;
1593;SDS011;790;47.000;16.084;2023-04-15T14:37:12;0.90;;;0.90;;
1593;SDS011;790;47.000;16.084;2023-04-15T14:39:39;0.77;;;0.77;;
1593;SDS011;790;47.000;16.084;2023-04-15T14:42:07;3.10;;;1.00;;
1593;SDS011;790;47.000;16.084;2023-04-15T14:44:34;1.30;;;1.30;;
1593;SDS011;790;47.000;16.084;2023-04-15T14:47:01;2.63;;;1.70;;
1593;SDS011;790;47.000;16.084;2023-04-15T14:49:29;1.87;;;1.70;;
1593;SDS011;790;47.000;16.084;2023-04-15T14:51:56;2.77;;;1.60;;
1593;SDS011;790;47.000;16.084;2023-04-15T14:54:24;2.00;;;1.83;;
1593;SDS011;790;47.000;16.084;2023-04-15T14:56:51;1.30;;;1.30;;
1593;SDS011;790;47.000;16.084;2023-04-15T14:59:19;1.10;;;1.10;;
1593;SDS011;790;47.000;16.084;2023-04-15T15:01:46;1.07;;;1.07;;
1593;SDS011;790;47.000;16.084;2023-04-15T15:04:14;0.90;;;0.90;;
1593;SDS011;790;47.000;16.084;2023-04-15T15:06:41;0.57;;;0.57;;
1593;SDS011;790;47.000;16.084;2023-04-15T15:09:08;1.40;;;1.40;;
1593;SDS011;790;47.000;16.084;2023-04-15T15:11:35;3.43;;;2.70;;
1593;SDS011;790;47.000;16.084;2023-04-15T15:14:02;3.60;;;3.30;;
1593;SDS011;790;47.000;16.084;2023-04-15T15:16:31;6.80;;;6.20;;
1593;SDS011;790;47.000;16.084;2023-04-15T15:18:59;1.40;;;1.30;;
1593;SDS011;790;47.000;16.084;2023-04-15T15:21:26;1.10;;;1.10;;
1593;SDS011;790;47.000;16.084;2023-04-15T15:23:54;1.57;;;1.33;;
1593;SDS011;790;47.000;16.084;2023-04-15T15:26:21;4.33;;;2.57;;
1593;SDS011;790;47.000;16.084;2023-04-15T15:28:48;1.30;;;1.30;;
1593;SDS011;790;47.000;16.084;2023-04-15T15:31:15;1.37;;;1.37;;
1593;SDS011;790;47.000;16.084;2023-04-15T15:33:44;1.20;;;1.20;;